Time;durP1;ratioP1;P1;durP2;ratioP2;P2;SDS_P1;SDS_P2;PMS_P1;PMS_P2;Temp;Humidity;BMP_temperature;BMP_pressure;BME280_temperature;BME280_humidity;BME280_pressure;Samples;Min_cycle;Max_cycle;Signal;HPM_P1;HPM_P2
2023/08/23 00:01:54;;;;;;;5.60;4.85;;;;;;;;;;4995170;28;94505;-33
2023/08/23 00:04:20;;;;;;;6.88;5.22;;;;;;;;;;4997017;28;94904;-35
2023/08/23 00:06:47;;;;;;;7.32;6.53;;;;;;;;;;5000668;28;92264;-32
2023/08/23 00:09:13;;;;;;;6.28;5.53;;;;;;;;;;4998834;28;93981;-33
2023/08/23 00:11:39;;;;;;;6.70;6.00;;;;;;;;;;4999317;28;93792;-32
2023/08/23 00:14:06;;;;;;;6.80;6.20;;;;;;;;;;4998937;28;94356;-34
2023/08/23 00:16:32;;;;;;;8.27;6.75;;;;;;;;;;5000089;28;94493;-34
2023/08/23 00:18:58;;;;;;;9.00;7.13;;;;;;;;;;4999287;28;94238;-33
2023/08/23 00:21:24;;;;;;;8.27;7.55;;;;;;;;;;4998718;28;95754;-33
2023/08/23 00:23:50;;;;;;;7.97;7.18;;;;;;;;;;4997491;28;95466;-32
2023/08/23 00:26:16;;;;;;;6.60;6.00;;;;;;;;;;4998907;28;93338;-33
2023/08/23 00:28:43;;;;;;;9.60;6.65;;;;;;;;;;4999611;28;92207;-33
2023/08/23 00:31:09;;;;;;;7.45;6.70;;;;;;;;;;4998051;28;95060;-34
2023/08/23 00:33:35;;;;;;;9.73;7.18;;;;;;;;;;4999332;28;94597;-38
2023/08/23 00:36:01;;;;;;;7.97;6.75;;;;;;;;;;4998202;28;94019;-33
2023/08/23 00:38:27;;;;;;;7.03;6.20;;;;;;;;;;4999172;28;91395;-34
2023/08/23 00:40:53;;;;;;;7.97;5.85;;;;;;;;;;4999279;28;95170;-33
2023/08/23 00:43:19;;;;;;;6.00;5.15;;;;;;;;;;4998328;28;94232;-37
2023/08/23 00:45:45;;;;;;;8.07;5.45;;;;;;;;;;4998060;28;94478;-33
2023/08/23 00:48:12;;;;;;;6.10;5.57;;;;;;;;;;4998766;28;94181;-32
2023/08/23 00:50:39;;;;;;;6.57;5.50;;;;;;;;;;4998636;28;94656;-32
2023/08/23 00:53:06;;;;;;;5.18;4.70;;;;;;;;;;4998855;28;94754;-32
2023/08/23 00:55:32;;;;;;;6.53;5.93;;;;;;;;;;4999026;28;93522;-32
2023/08/23 00:57:58;;;;;;;5.93;4.88;;;;;;;;;;4998452;28;93064;-37
2023/08/23 01:00:25;;;;;;;5.57;5.07;;;;;;;;;;4998149;28;95013;-32
2023/08/23 01:02:51;;;;;;;6.47;5.10;;;16.30;99.90;;;;;;4999356;28;94297;-32
2023/08/23 01:05:17;;;;;;;8.63;6.20;;;16.20;99.90;;;;;;4998145;28;95085;-35
2023/08/23 01:07:55;;;;;;;5.97;5.20;;;16.00;99.90;;;;;;4998056;28;94407;-38
2023/08/23 01:10:34;;;;;;;7.30;6.05;;;15.90;99.90;;;;;;4997007;28;95811;-33
2023/08/23 01:13:15;;;;;;;9.57;6.20;;;15.80;99.90;;;;;;4998619;28;95582;-33
2023/08/23 01:15:43;;;;;;;7.57;6.32;;;15.80;99.90;;;;;;4996820;28;94643;-34
2023/08/23 01:18:10;;;;;;;6.90;6.20;;;15.70;99.90;;;;;;4998411;28;94196;-39
2023/08/23 01:20:37;;;;;;;6.07;5.50;;;15.60;99.90;;;;;;4980359;28;94709;-32
2023/08/23 01:23:13;;;;;;;6.20;5.60;;;15.60;99.90;;;;;;4997538;28;94922;-33
2023/08/23 01:25:44;;;;;;;7.78;6.55;;;15.60;99.90;;;;;;4979431;28;94683;-35
2023/08/23 01:28:10;;;;;;;6.43;5.70;;;15.50;99.90;;;;;;4997853;28;91358;-35
2023/08/23 01:30:37;;;;;;;7.50;6.75;;;15.50;99.90;;;;;;4997936;28;94854;-32
2023/08/23 01:33:17;;;;;;;9.07;7.03;;;15.60;99.90;;;;;;4997714;28;94496;-36
2023/08/23 01:36:01;;;;;;;8.57;7.55;;;15.50;99.90;;;;;;4997720;28;94043;-32
2023/08/23 01:38:28;;;;;;;9.55;7.47;;;15.30;99.90;;;;;;4985506;28;92059;-32
2023/08/23 01:40:55;;;;;;;12.40;7.60;;;15.40;99.90;;;;;;4997774;28;94645;-41
2023/08/23 01:43:21;;;;;;;9.00;6.72;;;15.40;99.90;;;;;;4998006;28;94568;-35
2023/08/23 01:45:47;;;;;;;10.50;6.45;;;15.40;99.90;;;;;;4997053;28;94269;-32
2023/08/23 01:48:13;;;;;;;8.30;7.45;;;15.50;99.90;;;;;;4997955;28;93195;-34
2023/08/23 01:50:39;;;;;;;10.82;8.30;;;15.50;99.90;;;;;;4997356;28;95821;-35
2023/08/23 01:53:05;;;;;;;9.30;8.32;;;15.50;99.90;;;;;;4998067;28;94970;-38
2023/08/23 01:55:30;;;;;;;8.00;7.00;;;15.50;99.90;;;;;;4997477;28;94602;-32
2023/08/23 01:57:57;;;;;;;7.63;6.85;;;15.50;99.90;;;;;;4997565;28;93653;-31
2023/08/23 02:00:23;;;;;;;15.80;8.20;;;15.60;99.90;;;;;;4996403;28;95491;-38
2023/08/23 02:02:49;;;;;;;10.00;7.93;;;15.60;99.90;;;;;;4998050;28;97274;-32
2023/08/23 02:05:15;;;;;;;10.57;9.48;;;15.60;99.90;;;;;;4997448;28;94460;-36
2023/08/23 02:07:40;;;;;;;9.32;8.45;;;15.60;99.90;;;;;;4997984;28;92143;-34
2023/08/23 02:10:06;;;;;;;10.55;9.35;;;15.60;99.90;;;;;;4996620;28;94676;-35
2023/08/23 02:12:32;;;;;;;9.38;8.40;;;15.50;99.90;;;;;;4996850;28;95661;-36
2023/08/23 02:14:58;;;;;;;9.52;8.52;;;15.50;99.90;;;;;;4998083;28;95278;-36
2023/08/23 02:17:24;;;;;;;9.43;8.45;;;15.50;99.90;;;;;;4996456;28;93499;-38
2023/08/23 02:19:49;;;;;;;8.38;7.57;;;15.50;99.90;;;;;;4997490;28;94957;-35
2023/08/23 02:22:15;;;;;;;9.25;8.35;;;15.50;99.90;;;;;;4996000;28;94609;-36
2023/08/23 02:24:41;;;;;;;10.27;8.93;;;15.50;99.90;;;;;;4996530;28;94023;-32
2023/08/23 02:27:07;;;;;;;8.73;7.93;;;15.50;99.90;;;;;;4996544;28;92261;-31
2023/08/23 02:29:32;;;;;;;9.20;8.35;;;15.50;99.90;;;;;;4996654;28;94762;-37
2023/08/23 02:31:58;;;;;;;9.50;7.95;;;15.50;99.90;;;;;;4997163;28;93733;-35
2023/08/23 02:34:24;;;;;;;9.30;8.50;;;15.50;99.90;;;;;;4996589;28;94614;-31
2023/08/23 02:36:50;;;;;;;9.38;8.65;;;15.40;99.90;;;;;;4997583;28;92974;-34
2023/08/23 02:39:16;;;;;;;9.55;8.77;;;15.40;99.90;;;;;;4996749;28;94240;-31
2023/08/23 02:41:42;;;;;;;9.80;8.80;;;15.50;99.90;;;;;;4997685;28;95195;-30
2023/08/23 02:44:08;;;;;;;9.60;8.65;;;15.50;99.90;;;;;;4996399;28;93538;-37
2023/08/23 02:46:33;;;;;;;12.65;11.02;;;15.50;99.90;;;;;;4984075;28;93069;-32
2023/08/23 02:48:59;;;;;;;9.60;8.70;;;15.50;99.90;;;;;;4995682;28;96127;-33
2023/08/23 02:51:25;;;;;;;9.82;9.02;;;15.50;99.90;;;;;;4996097;28;94994;-31
2023/08/23 02:53:51;;;;;;;10.65;9.65;;;15.50;99.90;;;;;;4997898;28;92732;-32
2023/08/23 02:56:16;;;;;;;9.93;9.02;;;15.50;99.90;;;;;;4996452;28;93554;-32
2023/08/23 02:58:42;;;;;;;10.05;9.10;;;15.40;99.90;;;;;;4996299;28;93959;-36
2023/08/23 03:01:08;;;;;;;9.93;8.93;;;15.40;99.90;;;;;;4988662;28;94246;-34
2023/08/23 03:03:33;;;;;;;10.07;9.15;;;15.30;99.90;;;;;;4989798;28;92174;-35
2023/08/23 03:05:59;;;;;;;10.30;9.35;;;15.30;99.90;;;;;;4996578;28;94312;-33
2023/08/23 03:08:25;;;;;;;11.82;10.65;;;15.30;99.90;;;;;;4996544;28;94529;-32
2023/08/23 03:10:51;;;;;;;10.38;9.45;;;15.40;99.90;;;;;;4994778;28;94300;-33
2023/08/23 03:13:17;;;;;;;9.85;9.00;;;15.40;99.90;;;;;;4995980;28;95081;-36
2023/08/23 03:15:43;;;;;;;9.48;8.65;;;15.40;99.90;;;;;;4995590;28;92850;-35
2023/08/23 03:18:09;;;;;;;10.95;9.35;;;15.40;99.90;;;;;;4996658;28;94703;-31
2023/08/23 03:20:35;;;;;;;10.32;8.05;;;15.30;99.90;;;;;;4995678;28;94856;-35
2023/08/23 03:23:01;;;;;;;10.40;9.45;;;15.30;99.90;;;;;;4996237;28;93786;-33
2023/08/23 03:25:27;;;;;;;13.73;12.32;;;15.20;99.90;;;;;;4995668;28;92796;-34
2023/08/23 03:27:53;;;;;;;12.00;10.90;;;15.10;99.90;;;;;;4995695;28;95095;-34
2023/08/23 03:30:19;;;;;;;12.18;10.80;;;15.10;99.90;;;;;;4995480;28;94162;-33
2023/08/23 03:32:44;;;;;;;12.38;11.20;;;15.10;99.90;;;;;;4995549;28;93871;-32
2023/08/23 03:35:10;;;;;;;13.88;12.45;;;15.10;99.90;;;;;;4994600;28;93577;-34
2023/08/23 03:37:36;;;;;;;12.65;10.20;;;15.10;99.90;;;;;;4994967;28;95885;-32
2023/08/23 03:40:02;;;;;;;12.00;10.95;;;15.20;99.90;;;;;;4994184;28;97063;-33
2023/08/23 03:42:28;;;;;;;12.20;10.90;;;15.20;99.90;;;;;;4995845;28;94631;-35
2023/08/23 03:44:53;;;;;;;11.50;10.40;;;15.10;99.90;;;;;;4977070;28;93245;-32
2023/08/23 03:47:19;;;;;;;10.43;9.50;;;14.90;99.90;;;;;;4994343;28;95062;-37
2023/08/23 03:49:45;;;;;;;15.98;12.30;;;14.80;99.90;;;;;;4996069;28;96454;-34
2023/08/23 03:52:10;;;;;;;16.67;13.93;;;14.90;99.90;;;;;;4994859;28;93459;-38
2023/08/23 03:54:36;;;;;;;19.17;15.60;;;14.90;99.90;;;;;;4994458;28;91359;-34
2023/08/23 03:57:02;;;;;;;18.85;16.30;;;15.00;99.90;;;;;;4994617;28;95786;-34
2023/08/23 03:59:27;;;;;;;21.55;17.58;;;15.00;99.90;;;;;;4994473;28;94546;-31
2023/08/23 04:01:53;;;;;;;17.88;16.00;;;15.10;99.90;;;;;;4995200;28;95095;-31
2023/08/23 04:04:19;;;;;;;17.23;15.35;;;15.10;99.90;;;;;;4994111;28;92217;-33
2023/08/23 04:06:44;;;;;;;16.90;15.13;;;15.20;99.90;;;;;;4995755;28;95277;-33
2023/08/23 04:09:10;;;;;;;19.10;16.52;;;15.20;99.90;;;;;;4993871;28;94610;-35
2023/08/23 04:11:35;;;;;;;16.67;14.80;;;15.20;99.90;;;;;;4995598;28;93180;-33
2023/08/23 04:14:02;;;;;;;20.73;15.27;;;15.20;99.90;;;;;;4995077;28;94620;-32
2023/08/23 04:16:27;;;;;;;18.05;16.15;;;15.30;99.90;;;;;;4995052;28;94508;-36
2023/08/23 04:18:54;;;;;;;21.02;14.88;;;15.30;99.90;;;;;;4995073;28;94891;-36
2023/08/23 04:21:20;;;;;;;19.50;14.73;;;15.30;99.90;;;;;;4994403;28;92848;-32
2023/08/23 04:23:46;;;;;;;29.70;15.15;;;15.20;99.90;;;;;;4993847;28;93539;-35
2023/08/23 04:26:11;;;;;;;14.80;13.35;;;15.20;99.90;;;;;;4993644;28;97860;-33
2023/08/23 04:28:37;;;;;;;15.30;13.75;;;15.30;99.90;;;;;;4994043;28;94943;-32
2023/08/23 04:31:03;;;;;;;14.40;12.90;;;15.30;99.90;;;;;;4995070;28;92732;-36
2023/08/23 04:33:29;;;;;;;12.73;11.43;;;15.30;99.90;;;;;;4993689;28;93000;-32
2023/08/23 04:35:55;;;;;;;17.52;13.32;;;15.30;99.90;;;;;;4994299;28;94860;-38
2023/08/23 04:38:20;;;;;;;16.38;13.27;;;15.30;99.90;;;;;;4994383;28;96755;-33
2023/08/23 04:40:46;;;;;;;13.98;12.57;;;15.30;99.90;;;;;;4995023;28;94306;-32
2023/08/23 04:43:12;;;;;;;14.00;12.60;;;15.30;99.90;;;;;;4994901;28;93523;-37
2023/08/23 04:45:38;;;;;;;15.20;13.65;;;15.30;99.90;;;;;;4994031;28;93831;-35
2023/08/23 04:48:05;;;;;;;13.80;12.40;;;15.40;99.90;;;;;;4992554;28;94431;-34
2023/08/23 04:50:31;;;;;;;13.82;12.40;;;15.40;99.90;;;;;;4996590;28;93053;-32
2023/08/23 04:52:56;;;;;;;14.30;12.73;;;15.40;99.90;;;;;;4998234;28;93630;-31
2023/08/23 04:55:22;;;;;;;12.63;11.52;;;15.30;99.90;;;;;;4979211;28;95070;-37
2023/08/23 04:57:48;;;;;;;15.70;14.00;;;15.30;99.90;;;;;;4997625;28;94425;-34
2023/08/23 05:00:14;;;;;;;14.73;13.23;;;15.40;99.90;;;;;;4997438;28;93428;-35
2023/08/23 05:02:39;;;;;;;16.90;13.65;;;15.40;99.90;;;;;;4997736;28;92191;-32
2023/08/23 05:05:06;;;;;;;16.00;14.45;;;15.40;99.90;;;;;;4998132;28;95008;-33
2023/08/23 05:07:34;;;;;;;18.42;13.40;;;15.50;99.90;;;;;;4979358;28;94394;-37
2023/08/23 05:10:00;;;;;;;14.55;12.20;;;15.50;99.90;;;;;;4998426;28;94304;-31
2023/08/23 05:12:26;;;;;;;17.45;13.70;;;15.60;99.90;;;;;;4996713;28;94709;-35
2023/08/23 05:14:52;;;;;;;15.00;13.55;;;15.60;99.90;;;;;;4997555;28;95908;-31
2023/08/23 05:17:18;;;;;;;16.85;13.00;;;15.60;99.90;;;;;;4997024;28;95058;-31
2023/08/23 05:19:44;;;;;;;17.17;15.38;;;15.70;99.90;;;;;;4997836;28;94709;-36
2023/08/23 05:22:10;;;;;;;16.45;14.75;;;15.70;99.90;;;;;;4996936;28;92418;-32
2023/08/23 05:24:36;;;;;;;17.20;14.85;;;15.70;99.90;;;;;;4997128;28;94401;-33
2023/08/23 05:27:02;;;;;;;15.65;13.95;;;15.80;99.90;;;;;;4996560;28;94166;-33
2023/08/23 05:29:27;;;;;;;16.38;14.68;;;15.80;99.90;;;;;;4998159;28;94275;-31
2023/08/23 05:31:53;;;;;;;15.13;13.52;;;15.80;99.90;;;;;;4997067;28;91420;-33
2023/08/23 05:34:19;;;;;;;16.67;14.15;;;15.90;99.90;;;;;;4997008;28;94995;-39
2023/08/23 05:36:44;;;;;;;17.20;15.38;;;15.90;99.90;;;;;;4995882;28;94778;-37
2023/08/23 05:39:10;;;;;;;18.25;14.48;;;16.00;99.90;;;;;;4996868;28;93881;-33
2023/08/23 05:41:36;;;;;;;19.52;16.15;;;16.00;99.90;;;;;;4996502;28;94234;-33
2023/08/23 05:44:01;;;;;;;24.55;17.10;;;16.10;99.90;;;;;;4979330;28;94982;-35
2023/08/23 05:46:27;;;;;;;20.83;18.63;;;16.10;99.90;;;;;;4996901;28;95850;-30
2023/08/23 05:48:53;;;;;;;23.00;19.45;;;16.10;99.90;;;;;;4996536;28;93314;-33
2023/08/23 05:51:18;;;;;;;24.35;18.15;;;16.20;99.90;;;;;;5008324;28;94981;-32
2023/08/23 05:53:44;;;;;;;18.70;16.77;;;16.20;99.90;;;;;;4996924;28;93424;-33
2023/08/23 05:56:09;;;;;;;25.08;19.38;;;16.30;99.90;;;;;;4997027;28;94665;-35
2023/08/23 05:58:35;;;;;;;23.90;19.58;;;16.30;99.90;;;;;;4996745;28;92898;-32
2023/08/23 06:01:01;;;;;;;30.17;21.38;;;16.40;99.90;;;;;;4995826;28;94397;-33
2023/08/23 06:03:26;;;;;;;23.85;21.15;;;16.50;99.90;;;;;;4995874;28;96096;-34
2023/08/23 06:05:56;;;;;;;23.30;19.52;;;16.50;99.90;;;;;;4996333;28;95964;-33
2023/08/23 06:08:22;;;;;;;28.52;21.83;;;16.60;99.90;;;;;;4996409;28;92170;-31
2023/08/23 06:10:48;;;;;;;29.73;20.02;;;16.50;99.90;;;;;;4996526;28;94456;-36
2023/08/23 06:13:14;;;;;;;31.00;22.45;;;16.60;99.90;;;;;;4995966;28;95278;-35
2023/08/23 06:15:40;;;;;;;27.30;22.23;;;16.60;99.90;;;;;;4995795;28;94805;-31
2023/08/23 06:18:05;;;;;;;22.70;19.20;;;16.60;99.90;;;;;;4997154;28;92974;-32
2023/08/23 06:20:31;;;;;;;23.15;20.38;;;16.60;99.90;;;;;;4996650;28;94039;-32
2023/08/23 06:22:57;;;;;;;24.23;20.85;;;16.60;99.90;;;;;;4996693;28;94357;-33
2023/08/23 06:25:24;;;;;;;27.27;21.67;;;16.60;99.90;;;;;;4994898;28;96532;-34
2023/08/23 06:27:49;;;;;;;22.45;19.90;;;16.60;99.90;;;;;;4995133;28;95326;-38
2023/08/23 06:30:18;;;;;;;24.75;21.13;;;16.70;99.90;;;;;;4996019;28;92934;-34
2023/08/23 06:32:47;;;;;;;21.80;19.48;;;16.80;99.90;;;;;;4995810;28;94531;-33
2023/08/23 06:35:17;;;;;;;33.08;23.45;;;16.90;99.90;;;;;;4996387;28;94476;-32
2023/08/23 06:37:43;;;;;;;29.13;21.45;;;16.90;99.90;;;;;;4995476;28;94460;-34
2023/08/23 06:40:16;;;;;;;29.83;22.25;;;17.00;99.90;;;;;;5001915;28;92728;-32
2023/08/23 06:42:42;;;;;;;27.17;21.30;;;17.20;99.90;;;;;;4994893;28;94635;-37
2023/08/23 06:45:09;;;;;;;26.90;21.35;;;17.40;99.90;;;;;;4996155;28;94473;-36
2023/08/23 06:47:37;;;;;;;29.25;22.83;;;17.50;99.90;;;;;;4995643;28;93286;-32
2023/08/23 06:50:02;;;;;;;27.95;21.00;;;17.80;99.90;;;;;;4995795;28;95013;-33
2023/08/23 06:52:28;;;;;;;25.50;19.60;;;18.10;99.90;;;;;;4994269;28;94989;-32
2023/08/23 06:54:54;;;;;;;26.15;21.42;;;18.20;99.90;;;;;;4996121;28;95032;-36
2023/08/23 06:57:28;;;;;;;25.38;21.63;;;18.40;99.90;;;;;;4994891;28;93774;-36
2023/08/23 06:59:57;;;;;;;21.98;19.45;;;18.40;99.90;;;;;;4996620;28;93228;-34
2023/08/23 07:02:24;;;;;;;21.67;17.63;;;18.50;99.90;;;;;;4994231;28;95264;-35
2023/08/23 07:04:53;;;;;;;22.65;18.70;;;18.70;99.90;;;;;;4995778;28;94378;-33
2023/08/23 07:07:22;;;;;;;21.20;19.02;;;19.00;99.90;;;;;;4995020;28;92313;-33
2023/08/23 07:09:48;;;;;;;20.02;18.00;;;19.30;99.90;;;;;;4996220;28;92632;-33
2023/08/23 07:12:14;;;;;;;22.67;16.42;;;19.40;99.90;;;;;;4994591;28;95024;-38
2023/08/23 07:14:40;;;;;;;19.15;15.45;;;19.80;99.90;;;;;;4995261;28;94130;-32
2023/08/23 07:17:05;;;;;;;20.20;17.90;;;20.10;99.90;;;;;;4994674;28;95825;-31
2023/08/23 07:19:31;;;;;;;18.17;16.30;;;20.20;99.90;;;;;;4995897;28;93767;-33
2023/08/23 07:22:00;;;;;;;21.63;16.17;;;20.40;99.90;;;;;;4994732;28;94881;-32
2023/08/23 07:24:25;;;;;;;19.95;16.20;;;20.60;99.90;;;;;;4993860;28;94312;-32
2023/08/23 07:26:51;;;;;;;18.27;15.55;;;20.70;99.90;;;;;;4993697;28;94477;-37
2023/08/23 07:29:17;;;;;;;16.25;14.57;;;20.90;99.90;;;;;;4992038;28;93571;-32
2023/08/23 07:31:43;;;;;;;17.52;14.77;;;20.90;99.90;;;;;;4992378;28;94945;-36
2023/08/23 07:34:09;;;;;;;18.75;15.20;;;20.70;99.90;;;;;;4994552;28;94165;-37
2023/08/23 07:36:35;;;;;;;16.95;15.20;;;20.80;99.90;;;;;;4992482;28;93825;-35
2023/08/23 07:39:01;;;;;;;16.63;14.35;;;20.80;99.90;;;;;;4993669;28;94594;-32
2023/08/23 07:41:26;;;;;;;16.52;12.82;;;21.00;99.90;;;;;;4991595;28;95774;-31
2023/08/23 07:43:52;;;;;;;23.92;16.38;;;21.00;99.90;;;;;;4993051;28;95324;-35
2023/08/23 07:46:18;;;;;;;18.95;15.38;;;20.70;99.90;;;;;;4993301;28;93471;-35
2023/08/23 07:48:43;;;;;;;17.05;14.25;;;20.70;99.90;;;;;;4992161;28;94109;-30
2023/08/23 07:51:09;;;;;;;14.55;12.13;;;20.60;99.90;;;;;;4992239;28;95081;-32
2023/08/23 07:53:36;;;;;;;14.75;12.85;;;20.60;99.90;;;;;;4993621;28;94611;-32
2023/08/23 07:56:02;;;;;;;13.57;11.88;;;21.00;99.90;;;;;;4994907;28;93444;-32
2023/08/23 07:58:28;;;;;;;12.65;11.30;;;21.00;99.90;;;;;;4995923;28;91324;-33
2023/08/23 08:00:54;;;;;;;11.38;10.23;;;21.30;99.90;;;;;;4992984;28;95698;-35
2023/08/23 08:03:20;;;;;;;11.18;9.93;;;21.80;99.90;;;;;;4993325;28;94732;-32
2023/08/23 08:05:46;;;;;;;12.55;10.98;;;22.20;99.90;;;;;;4994158;28;95499;-32
2023/08/23 08:08:12;;;;;;;10.93;9.48;;;22.30;99.90;;;;;;4994425;28;93074;-32
2023/08/23 08:10:38;;;;;;;10.10;8.55;;;22.30;99.90;;;;;;4994883;28;94350;-32
2023/08/23 08:13:04;;;;;;;16.38;11.13;;;22.60;99.90;;;;;;4995256;28;94447;-33
2023/08/23 08:15:31;;;;;;;12.25;11.15;;;22.80;99.90;;;;;;4994944;28;93588;-34
2023/08/23 08:17:57;;;;;;;14.07;10.73;;;22.70;99.90;;;;;;4995012;28;93133;-34
2023/08/23 08:20:24;;;;;;;10.07;9.07;;;22.70;99.90;;;;;;4994073;28;95345;-34
2023/08/23 08:22:50;;;;;;;11.85;10.45;;;22.90;99.90;;;;;;4995208;28;94329;-38
2023/08/23 08:25:16;;;;;;;13.02;10.57;;;23.10;99.90;;;;;;5025979;22;94459;-32
2023/08/23 08:27:42;;;;;;;9.30;8.50;;;23.10;99.90;;;;;;4977857;28;92490;-31
2023/08/23 08:30:07;;;;;;;12.68;8.27;;;23.20;99.90;;;;;;4979063;28;95549;-35
2023/08/23 08:32:33;;;;;;;9.65;7.60;;;23.00;99.90;;;;;;4979108;28;95040;-32
2023/08/23 08:35:00;;;;;;;7.53;6.68;;;23.30;99.90;;;;;;4979721;28;92194;-36
2023/08/23 08:37:26;;;;;;;7.15;6.30;;;23.30;99.90;;;;;;4979233;28;92978;-35
2023/08/23 08:39:51;;;;;;;7.90;7.10;;;23.60;99.90;;;;;;4979118;28;94439;-34
2023/08/23 08:42:17;;;;;;;9.05;6.50;;;24.00;99.90;;;;;;4979397;28;94487;-34
2023/08/23 08:44:44;;;;;;;8.05;6.35;;;24.00;99.90;;;;;;4986526;28;92171;-33
2023/08/23 08:47:10;;;;;;;4.82;4.43;;;23.70;99.90;;;;;;4998328;28;93442;-33
2023/08/23 08:49:36;;;;;;;6.00;4.95;;;24.00;99.90;;;;;;4979939;28;95972;-35
2023/08/23 08:52:04;;;;;;;7.07;6.15;;;23.90;99.90;;;;;;4978587;28;94801;-37
2023/08/23 08:54:32;;;;;;;5.78;5.28;;;24.10;99.90;;;;;;4978928;28;94533;-33
2023/08/23 08:56:59;;;;;;;;;;;24.50;99.90;;;;;;4980338;28;94319;-37
2023/08/23 08:59:25;;;;;;;7.00;4.63;;;24.50;99.90;;;;;;4980572;28;94601;-33
2023/08/23 09:01:54;;;;;;;7.55;4.35;;;24.60;99.90;;;;;;4989056;28;95235;-33
2023/08/23 09:04:20;;;;;;;6.75;5.38;;;24.80;99.90;;;;;;4997385;28;92209;-34
2023/08/23 09:06:46;;;;;;;6.22;4.30;;;24.90;99.90;;;;;;4998658;28;93851;-33
2023/08/23 09:09:12;;;;;;;5.53;4.20;;;24.70;99.90;;;;;;4998020;28;94444;-32
2023/08/23 09:11:38;;;;;;;2.97;2.67;;;;;;;;;;4998132;28;93565;-34
2023/08/23 09:14:14;;;;;;;4.00;2.75;;;;;;;;;;4979540;28;94381;-35
2023/08/23 09:16:41;;;;;;;3.63;2.90;;;;;;;;;;4977837;28;93649;-34
2023/08/23 09:19:13;;;;;;;4.70;3.10;;;;;;;;;;4997707;28;95484;-33
2023/08/23 09:21:43;;;;;;;3.20;2.67;;;;;;;;;;4996018;28;95718;-33
2023/08/23 09:24:09;;;;;;;3.80;2.58;;;;;;;;;;4978454;28;92989;-33
2023/08/23 09:26:35;;;;;;;5.03;2.30;;;;;;;;;;4980754;28;93793;-37
2023/08/23 09:29:02;;;;;;;3.88;2.25;;;;;;;;;;4988646;28;94934;-35
2023/08/23 09:31:28;;;;;;;6.60;3.28;;;;;;;;;;4990981;28;94453;-32
2023/08/23 09:33:54;;;;;;;5.25;2.63;;;;;;;;;;4960975;28;92510;-31
2023/08/23 09:36:40;;;;;;;3.63;2.10;;;;;;;;;;4989833;28;93005;-30
2023/08/23 09:39:12;;;;;;;3.50;3.20;;;;;;;;;;4990424;28;94710;-36
2023/08/23 09:41:39;;;;;;;4.47;3.33;;;;;;;;;;4997356;28;94277;-36
2023/08/23 09:44:06;;;;;;;6.60;4.13;;;;;;;;;;4995433;28;94392;-33
2023/08/23 09:46:34;;;;;;;3.28;2.72;;;;;;;;;;4997325;28;93227;-32
2023/08/23 09:49:03;;;;;;;5.43;3.17;;;;;;;;;;4995551;28;94938;-37
2023/08/23 09:51:30;;;;;;;3.25;2.50;;;;;;;;;;4996232;28;94403;-33
2023/08/23 09:53:57;;;;;;;3.72;3.00;;;;;;;;;;4995530;28;93071;-32
2023/08/23 09:56:23;;;;;;;2.72;2.47;;;;;;;;;;4996651;28;93967;-34
2023/08/23 09:58:49;;;;;;;3.40;3.08;;;;;;;;;;4996277;28;95249;-38
2023/08/23 10:01:15;;;;;;;6.47;2.58;;;;;;;;;;4997188;28;96077;-34
2023/08/23 10:03:42;;;;;;;1.90;1.80;;;;;;;;;;4997564;28;94652;-33
2023/08/23 10:06:08;;;;;;;2.53;2.15;;;;;;;;;;4996703;28;93375;-34
2023/08/23 10:08:35;;;;;;;2.40;1.85;;;;;;;;;;4996390;28;95505;-34
2023/08/23 10:11:02;;;;;;;3.05;2.60;;;;;;;;;;4972338;28;95323;-36
2023/08/23 10:13:30;;;;;;;2.10;1.60;;;;;;;;;;4977681;28;93387;-37
2023/08/23 10:15:56;;;;;;;2.83;1.95;;;;;;;;;;4978823;28;92671;-34
2023/08/23 10:18:23;;;;;;;1.77;1.67;;;;;;;;;;4964838;28;94754;-34
2023/08/23 10:20:51;;;;;;;7.22;2.35;;;;;;;;;;4989851;28;94460;-33
2023/08/23 10:23:18;;;;;;;2.38;1.75;;;;;;;;;;4990638;28;94988;-37
2023/08/23 10:25:48;;;;;;;4.50;1.58;;;;;;;;;;4994882;28;92644;-35
2023/08/23 10:28:18;;;;;;;5.90;2.40;;;;;;;;;;4986067;28;95278;-32
2023/08/23 10:30:45;;;;;;;2.50;2.30;;;;;;;;;;4990242;28;94347;-34
2023/08/23 10:33:13;;;;;;;3.40;2.17;;;;;;;;;;4989793;28;94461;-33
2023/08/23 10:35:40;;;;;;;4.70;2.15;;;;;;;;;;4989852;28;92166;-35
2023/08/23 10:38:06;;;;;;;2.42;2.17;;;;;;;;;;4991230;28;94801;-33
2023/08/23 10:40:33;;;;;;;3.72;2.47;;;;;;;;;;4989875;28;95457;-34
2023/08/23 10:43:03;;;;;;;3.20;2.90;;;;;;;;;;4990598;28;93185;-36
2023/08/23 10:45:29;;;;;;;2.22;2.13;;;;;;;;;;4988625;28;94095;-33
2023/08/23 10:47:55;;;;;;;2.95;1.90;;;;;;;;;;4993542;28;93466;-35
2023/08/23 10:50:21;;;;;;;2.90;2.63;;;;;;;;;;4990004;28;93743;-32
2023/08/23 10:52:49;;;;;;;3.00;2.22;;;;;;;;;;4981637;28;93621;-36
2023/08/23 10:55:15;;;;;;;;;;;;;;;;;;4988771;28;94468;-35
2023/08/23 10:57:41;;;;;;;4.22;2.35;;;;;;;;;;4993007;28;95498;-32
2023/08/23 11:00:07;;;;;;;2.80;2.15;;;;;;;;;;4968523;28;97731;-37
2023/08/23 11:02:33;;;;;;;7.13;2.88;;;;;;;;;;4994339;28;94276;-36
2023/08/23 11:05:00;;;;;;;3.85;2.47;;;;;;;;;;4993967;28;93101;-32
2023/08/23 11:07:26;;;;;;;4.97;2.83;;;;;;;;;;4993181;28;94919;-36
2023/08/23 11:09:53;;;;;;;2.88;2.67;;;;;;;;;;4994366;28;95353;-35
2023/08/23 11:12:19;;;;;;;3.90;2.72;;;;;;;;;;4993031;28;94109;-34
2023/08/23 11:14:45;;;;;;;3.40;2.30;;;;;;;;;;4993124;28;92557;-33
2023/08/23 11:17:11;;;;;;;2.50;2.08;;;;;;;;;;4988501;28;95240;-35
2023/08/23 11:19:38;;;;;;;2.80;2.25;;;;;;;;;;4990919;28;95926;-34
2023/08/23 11:22:06;;;;;;;2.95;2.72;;;;;;;;;;4993164;28;93843;-36
2023/08/23 11:24:32;;;;;;;;;;;;;;;;;;4994090;28;93066;-34
2023/08/23 11:26:58;;;;;;;3.17;2.60;;;;;;;;;;4994009;28;94808;-34
2023/08/23 11:29:25;;;;;;;2.35;2.20;;;;;;;;;;4992275;28;93941;-35
2023/08/23 11:31:55;;;;;;;3.40;2.35;;;;;;;;;;4991879;28;92936;-35
2023/08/23 11:34:21;;;;;;;3.88;2.58;;;;;;;;;;4974087;28;93901;-36
2023/08/23 11:36:47;;;;;;;2.33;2.13;;;;;;;;;;4992832;28;95118;-33
2023/08/23 11:39:14;;;;;;;7.80;2.20;;;;;;;;;;4991915;28;92782;-32
2023/08/23 11:41:40;;;;;;;5.43;2.40;;;;;;;;;;4993366;28;93585;-35
2023/08/23 11:44:07;;;;;;;4.00;3.33;;;;;;;;;;4991999;28;92501;-35
2023/08/23 11:46:38;;;;;;;3.30;2.50;;;;;;;;;;4992076;28;96074;-34
2023/08/23 11:49:05;;;;;;;4.15;2.65;;;;;;;;;;4991649;28;95061;-33
2023/08/23 11:51:40;;;;;;;3.97;3.50;;;;;;;;;;4992394;28;94363;-36
2023/08/23 11:54:06;;;;;;;4.50;2.40;;;;;;;;;;4991700;28;94072;-36
2023/08/23 11:56:33;;;;;;;2.67;2.47;;;;;;;;;;4992762;28;94211;-33
2023/08/23 11:58:59;;;;;;;2.95;2.65;;;;;;;;;;4991486;28;94189;-33
2023/08/23 12:01:25;;;;;;;4.03;3.30;;;;;;;;;;4997377;28;93944;-32
2023/08/23 12:03:51;;;;;;;2.85;2.65;;;;;;;;;;4990242;28;91759;-37
2023/08/23 12:06:17;;;;;;;4.45;2.13;;;;;;;;;;4982316;28;94478;-34
2023/08/23 12:08:43;;;;;;;3.55;2.03;;;;;;;;;;4985823;28;94728;-35
2023/08/23 12:11:09;;;;;;;3.33;2.78;;;;;;;;;;4987948;28;96076;-35
2023/08/23 12:13:37;;;;;;;6.88;2.67;;;;;;;;;;4989186;28;94481;-31
2023/08/23 12:16:03;;;;;;;10.35;2.70;;;;;;;;;;4989995;28;94107;-36
2023/08/23 12:18:29;;;;;;;9.30;2.42;;;;;;;;;;4986626;28;94030;-32
2023/08/23 12:20:55;;;;;;;2.70;2.50;;;;;;;;;;4987982;28;93215;-35
2023/08/23 12:23:21;;;;;;;2.72;2.25;;;;;;;;;;4975627;28;93720;-37
2023/08/23 12:25:47;;;;;;;2.70;2.28;;;;;;;;;;4976274;28;95136;-34
2023/08/23 12:28:14;;;;;;;2.90;2.58;;;;;;;;;;4976826;28;95144;-32
2023/08/23 12:30:40;;;;;;;3.40;2.60;;;;;;;;;;4977843;28;94254;-33
2023/08/23 12:33:06;;;;;;;4.97;2.40;;;;;;;;;;4976330;28;93646;-34
2023/08/23 12:35:32;;;;;;;2.85;2.42;;;;;;;;;;4985390;28;96311;-33
2023/08/23 12:37:59;;;;;;;2.75;1.90;;;;;;;;;;4992670;28;96475;-35
2023/08/23 12:40:25;;;;;;;6.03;1.92;;;;;;;;;;4986481;28;92184;-34
2023/08/23 12:42:51;;;;;;;2.67;2.17;;;;;;;;;;4992376;28;94495;-35
2023/08/23 12:45:18;;;;;;;5.95;1.90;;;;;;;;;;4995537;28;94159;-32
2023/08/23 12:47:44;;;;;;;1.95;1.80;;;;;;;;;;4995308;28;94636;-35
2023/08/23 12:50:10;;;;;;;5.72;2.92;;;;;;;;;;4993967;28;93339;-33
2023/08/23 12:52:37;;;;;;;2.40;2.20;;;;;;;;;;4991258;28;93763;-37
2023/08/23 12:55:04;;;;;;;3.35;2.35;;;;;;;;;;4993753;28;93229;-33
2023/08/23 12:57:31;;;;;;;5.47;4.13;;;;;;;;;;4991791;28;94286;-35
2023/08/23 12:59:57;;;;;;;3.67;2.35;;;;;;;;;;4995977;28;93224;-31
2023/08/23 13:02:23;;;;;;;2.83;2.08;;;;;;;;;;4994060;28;93037;-35
2023/08/23 13:04:49;;;;;;;4.82;2.10;;;;;;;;;;4976641;28;95435;-34
2023/08/23 13:07:15;;;;;;;4.50;1.88;;;;;;;;;;4970406;28;94790;-36
2023/08/23 13:09:41;;;;;;;5.68;2.42;;;;;;;;;;4976609;28;93343;-36
2023/08/23 13:12:07;;;;;;;2.85;2.55;;;;;;;;;;4991648;28;94729;-32
2023/08/23 13:14:34;;;;;;;2.58;2.40;;;;;;;;;;4968515;28;94496;-36
2023/08/23 13:17:00;;;;;;;6.03;2.78;;;;;;;;;;4978124;28;94040;-32